createdAt,value
2023-04-15T00:03:02.398Z,60.29
2023-04-15T00:06:04.898Z,60.55
2023-04-15T00:09:07.229Z,60.15
2023-04-15T00:12:09.794Z,60.07
2023-04-15T00:15:12.608Z,60.25
2023-04-15T00:18:14.976Z,60.31
2023-04-15T00:21:17.291Z,60.29
2023-04-15T00:24:19.654Z,60.07
2023-04-15T00:27:22.062Z,59.77
2023-04-15T00:30:24.387Z,60.08
2023-04-15T00:33:26.815Z,59.83
2023-04-15T00:36:29.169Z,59.91
2023-04-15T00:39:31.742Z,60.23
2023-04-15T00:42:35.096Z,60.34
2023-04-15T00:45:37.493Z,60.25
2023-04-15T00:48:40.828Z,59.77
2023-04-15T00:51:43.194Z,59.90
2023-04-15T00:54:45.674Z,60.23
2023-04-15T00:57:48.573Z,59.52
2023-04-15T01:00:54.437Z,60.05
2023-04-15T01:04:00.526Z,60.25
2023-04-15T01:07:02.991Z,59.93
2023-04-15T01:10:05.816Z,60.00
2023-04-15T01:13:08.184Z,59.86
2023-04-15T01:16:11.879Z,60.46
2023-04-15T01:19:14.979Z,59.66
2023-04-15T01:22:17.596Z,59.51
2023-04-15T01:25:28.034Z,59.89
2023-04-15T01:28:30.742Z,60.27
2023-04-15T01:31:33.543Z,59.80
2023-04-15T01:34:36.211Z,59.70
2023-04-15T01:37:38.553Z,59.93
2023-04-15T01:40:40.998Z,60.12
2023-04-15T01:43:43.365Z,59.89
2023-04-15T01:46:45.817Z,60.04
2023-04-15T01:49:48.308Z,59.67
2023-04-15T01:52:51.191Z,59.99
2023-04-15T01:55:54.131Z,60.05
2023-04-15T01:58:57.046Z,59.85
2023-04-15T02:02:00.058Z,59.95
2023-04-15T02:05:04.844Z,59.93
2023-04-15T02:08:07.178Z,60.11
2023-04-15T02:11:12.041Z,60.06
2023-04-15T02:14:14.496Z,60.06
2023-04-15T02:17:17.441Z,60.01
2023-04-15T02:20:21.443Z,59.85
2023-04-15T02:23:23.851Z,59.71
2023-04-15T02:26:26.274Z,59.85
2023-04-15T02:29:32.535Z,59.68
2023-04-15T02:32:38.128Z,59.99
2023-04-15T02:35:44.217Z,59.54
2023-04-15T02:38:46.574Z,59.87
2023-04-15T02:41:53.380Z,59.58
2023-04-15T02:44:57.324Z,59.90
2023-04-15T02:48:06.717Z,59.72
2023-04-15T02:51:20.135Z,59.55
2023-04-15T02:54:23.132Z,59.65
2023-04-15T02:57:26.178Z,59.66
2023-04-15T03:00:28.640Z,59.56
2023-04-15T03:03:31.227Z,59.56
2023-04-15T03:06:33.681Z,59.54
2023-04-15T03:09:36.344Z,59.75
2023-04-15T03:12:39.578Z,59.47
2023-04-15T03:15:42.235Z,59.87
2023-04-15T03:18:45.425Z,60.01
2023-04-15T03:21:48.227Z,59.62
2023-04-15T03:24:50.728Z,59.56
2023-04-15T03:27:53.271Z,59.70
2023-04-15T03:30:56.091Z,59.71
2023-04-15T03:33:58.443Z,59.81
2023-04-15T03:37:01.135Z,59.80
2023-04-15T03:40:03.616Z,59.91
2023-04-15T03:43:05.929Z,59.65
2023-04-15T03:46:08.272Z,59.83
2023-04-15T03:49:11.276Z,59.88
2023-04-15T03:52:13.693Z,59.98
2023-04-15T03:55:16.192Z,59.85
2023-04-15T03:58:18.958Z,59.51
2023-04-15T04:01:21.464Z,59.65
2023-04-15T04:04:24.070Z,59.80
2023-04-15T04:07:26.661Z,59.92
2023-04-15T04:10:29.036Z,59.37
2023-04-15T04:13:31.360Z,59.40
2023-04-15T04:16:33.769Z,59.85
2023-04-15T04:19:36.166Z,59.66
2023-04-15T04:22:41.798Z,59.38
2023-04-15T04:25:44.165Z,59.53
2023-04-15T04:28:46.617Z,59.49
2023-04-15T04:31:49.264Z,59.70
2023-04-15T04:34:51.607Z,59.39
2023-04-15T04:37:53.962Z,59.22
2023-04-15T04:40:56.445Z,59.72
2023-04-15T04:43:58.797Z,59.23
2023-04-15T04:47:01.170Z,59.35
2023-04-15T04:50:03.720Z,59.25
2023-04-15T04:53:06.153Z,59.74
2023-04-15T04:56:08.669Z,59.64
2023-04-15T04:59:11.034Z,59.29
2023-04-15T05:02:13.503Z,59.34
2023-04-15T05:05:16.322Z,59.28
2023-04-15T05:08:18.747Z,59.39
2023-04-15T05:11:21.126Z,59.04
2023-04-15T05:14:23.538Z,58.98
2023-04-15T05:17:25.885Z,59.07
2023-04-15T05:20:28.365Z,59.42
2023-04-15T05:23:30.761Z,59.24
2023-04-15T05:26:33.125Z,58.82
2023-04-15T05:29:35.690Z,59.07
2023-04-15T05:32:38.290Z,58.60
2023-04-15T05:35:40.696Z,58.44
2023-04-15T05:38:43.065Z,58.21
2023-04-15T05:41:45.445Z,58.33
2023-04-15T05:44:47.873Z,58.49
2023-04-15T05:47:51.041Z,58.35
2023-04-15T05:50:53.535Z,58.23
2023-04-15T05:53:55.946Z,58.13
2023-04-15T05:56:58.513Z,57.78
2023-04-15T06:00:01.049Z,57.84
2023-04-15T06:03:04.152Z,57.62
2023-04-15T06:06:07.799Z,57.57
2023-04-15T06:09:10.119Z,57.69
2023-04-15T06:12:13.217Z,57.70
2023-04-15T06:15:15.656Z,57.85
2023-04-15T06:18:17.982Z,57.48
2023-04-15T06:21:20.400Z,57.60
2023-04-15T06:24:22.771Z,57.37
2023-04-15T06:27:25.320Z,57.82
2023-04-15T06:30:27.716Z,57.81
2023-04-15T06:33:30.162Z,57.31
2023-04-15T06:36:32.751Z,57.38
2023-04-15T06:39:35.107Z,57.43
2023-04-15T06:42:38.373Z,57.66
2023-04-15T06:45:40.835Z,57.66
2023-04-15T06:48:43.209Z,57.86
2023-04-15T06:51:45.614Z,57.40
2023-04-15T06:54:48.030Z,57.65
2023-04-15T06:57:50.408Z,57.24
2023-04-15T07:00:53.266Z,57.26
2023-04-15T07:03:55.646Z,57.45
2023-04-15T07:06:57.985Z,57.57
2023-04-15T07:10:02.130Z,57.24
2023-04-15T07:13:04.555Z,57.62
2023-04-15T07:16:06.912Z,57.41
2023-04-15T07:19:09.321Z,57.44
2023-04-15T07:22:11.891Z,56.87
2023-04-15T07:25:14.243Z,57.45
2023-04-15T07:28:16.856Z,57.21
2023-04-15T07:31:19.356Z,57.28
2023-04-15T07:34:21.755Z,57.20
2023-04-15T07:37:24.233Z,56.72
2023-04-15T07:40:26.694Z,55.87
2023-04-15T07:43:29.189Z,55.40
2023-04-15T07:46:31.886Z,55.10
2023-04-15T07:49:34.207Z,55.22
2023-04-15T07:52:39.507Z,55.36
2023-04-15T07:55:41.811Z,55.25
2023-04-15T07:58:44.155Z,55.00
2023-04-15T08:01:46.772Z,54.98
2023-04-15T08:04:49.238Z,54.63
2023-04-15T08:07:51.740Z,54.42
2023-04-15T08:10:54.081Z,54.66
2023-04-15T08:13:56.621Z,54.51
2023-04-15T08:16:58.994Z,54.22
2023-04-15T08:20:01.454Z,53.92
2023-04-15T08:23:04.782Z,53.80
2023-04-15T08:26:07.718Z,54.10
2023-04-15T08:29:10.032Z,54.17
2023-04-15T08:32:12.382Z,53.99
2023-04-15T08:35:15.510Z,53.97
2023-04-15T08:38:18.286Z,54.07
2023-04-15T08:41:25.451Z,54.16
2023-04-15T08:44:29.614Z,54.10
2023-04-15T08:47:32.256Z,53.93
2023-04-15T08:50:35.244Z,54.09
2023-04-15T08:53:37.832Z,53.74
2023-04-15T08:56:40.879Z,53.82
2023-04-15T08:59:43.691Z,53.73
2023-04-15T09:02:46.961Z,53.41
2023-04-15T09:05:52.684Z,53.57
2023-04-15T09:08:55.826Z,53.37
2023-04-15T09:11:58.263Z,53.66
2023-04-15T09:15:01.468Z,53.57
2023-04-15T09:18:04.310Z,53.51
2023-04-15T09:21:09.047Z,53.38
2023-04-15T09:24:11.457Z,53.55
2023-04-15T09:27:16.813Z,53.40
2023-04-15T09:30:19.196Z,53.48
2023-04-15T09:33:21.578Z,53.33
2023-04-15T09:36:25.252Z,53.54
2023-04-15T09:39:27.560Z,53.38
2023-04-15T09:42:29.982Z,53.58
2023-04-15T09:45:33.705Z,53.87
2023-04-15T09:48:36.746Z,53.58
2023-04-15T09:51:39.419Z,53.25
2023-04-15T09:54:41.761Z,53.25
2023-04-15T09:57:47.277Z,53.23
2023-04-15T10:00:51.913Z,53.40
2023-04-15T10:03:57.002Z,53.15
2023-04-15T10:06:59.602Z,53.71
2023-04-15T10:10:05.436Z,53.57
2023-04-15T10:13:08.411Z,53.17
2023-04-15T10:16:12.695Z,53.30
2023-04-15T10:19:16.565Z,53.49
2023-04-15T10:22:19.019Z,53.31
2023-04-15T10:25:21.677Z,53.35
2023-04-15T10:28:24.178Z,53.13
2023-04-15T10:31:26.762Z,53.26
2023-04-15T10:34:30.221Z,53.30
2023-04-15T10:37:38.345Z,53.10
2023-04-15T10:40:41.191Z,53.25
2023-04-15T10:43:57.962Z,53.02
2023-04-15T10:47:00.594Z,52.82
2023-04-15T10:50:03.723Z,53.04
2023-04-15T10:53:06.220Z,52.82
2023-04-15T10:56:08.851Z,53.35
2023-04-15T10:59:11.308Z,52.99
2023-04-15T11:02:14.279Z,53.20
2023-04-15T11:05:17.650Z,53.14
2023-04-15T11:08:20.586Z,53.08
2023-04-15T11:11:23.242Z,53.43
2023-04-15T11:14:25.764Z,53.20
2023-04-15T11:17:31.470Z,52.75
2023-04-15T11:20:34.163Z,53.14
2023-04-15T11:23:44.238Z,53.17
2023-04-15T11:26:46.704Z,53.05
2023-04-15T11:29:49.126Z,52.95
2023-04-15T11:32:53.080Z,53.01
2023-04-15T11:35:55.487Z,52.76
2023-04-15T11:38:59.226Z,52.57
2023-04-15T11:42:01.609Z,52.90
2023-04-15T11:45:15.292Z,52.53
2023-04-15T11:48:18.480Z,52.93
2023-04-15T11:51:22.713Z,52.58
2023-04-15T11:54:25.071Z,52.56
2023-04-15T11:57:32.101Z,52.67
2023-04-15T12:00:35.307Z,52.65
2023-04-15T12:03:49.100Z,52.64
2023-04-15T12:06:51.743Z,52.57
2023-04-15T12:09:57.939Z,52.81
2023-04-15T12:13:00.380Z,52.88
2023-04-15T12:16:03.823Z,52.60
2023-04-15T12:19:10.078Z,52.50
2023-04-15T12:22:16.172Z,52.44
2023-04-15T12:25:18.543Z,52.68
2023-04-15T12:28:20.914Z,52.50
2023-04-15T12:31:23.847Z,52.63
2023-04-15T12:34:33.366Z,52.29
2023-04-15T12:37:35.826Z,52.71
2023-04-15T12:40:38.185Z,52.36
2023-04-15T12:43:40.582Z,52.52
2023-04-15T12:46:43.015Z,52.67
2023-04-15T12:49:45.790Z,52.69
2023-04-15T12:52:48.151Z,52.35
2023-04-15T12:55:50.494Z,52.33
2023-04-15T12:58:53.177Z,52.67
2023-04-15T13:01:55.734Z,52.76
2023-04-15T13:04:58.296Z,52.78
2023-04-15T13:08:00.956Z,52.70
2023-04-15T13:11:03.850Z,52.45
2023-04-15T13:14:08.463Z,52.90
2023-04-15T13:17:11.590Z,52.87
2023-04-15T13:20:14.291Z,52.99
2023-04-15T13:23:17.050Z,52.58
2023-04-15T13:26:19.480Z,52.68
2023-04-15T13:29:22.290Z,52.76
2023-04-15T13:32:24.665Z,52.88
2023-04-15T13:35:27.159Z,52.70
2023-04-15T13:38:29.500Z,52.90
2023-04-15T13:41:32.302Z,52.77
2023-04-15T13:44:35.237Z,52.82
2023-04-15T13:47:37.693Z,53.12
2023-04-15T13:50:41.801Z,53.04
2023-04-15T13:53:44.406Z,52.81
2023-04-15T13:56:46.785Z,53.02
2023-04-15T13:59:49.193Z,52.96
2023-04-15T14:02:52.013Z,53.08
2023-04-15T14:05:56.198Z,52.99
2023-04-15T14:08:58.616Z,52.98
2023-04-15T14:12:01.584Z,53.24
2023-04-15T14:15:04.444Z,53.01
2023-04-15T14:18:07.604Z,53.26
2023-04-15T14:21:10.030Z,53.48
2023-04-15T14:24:12.396Z,53.33
2023-04-15T14:27:15.517Z,53.18
2023-04-15T14:30:17.950Z,53.56
2023-04-15T14:33:20.434Z,53.68
2023-04-15T14:36:22.971Z,53.36
2023-04-15T14:39:25.495Z,53.83
2023-04-15T14:42:27.846Z,53.91
2023-04-15T14:45:30.754Z,53.99
2023-04-15T14:48:33.190Z,53.95
2023-04-15T14:51:35.692Z,54.19
2023-04-15T14:54:38.220Z,54.17
2023-04-15T14:57:41.669Z,54.01
2023-04-15T15:00:44.601Z,54.25
2023-04-15T15:03:47.972Z,53.95
2023-04-15T15:06:50.905Z,54.02
2023-04-15T15:09:54.332Z,54.37
2023-04-15T15:12:56.686Z,54.42
2023-04-15T15:15:59.281Z,54.53
2023-04-15T15:19:01.763Z,54.46
2023-04-15T15:22:04.464Z,54.52
2023-04-15T15:25:06.929Z,54.47
2023-04-15T15:28:09.378Z,54.25
2023-04-15T15:31:11.823Z,54.24
2023-04-15T15:34:14.335Z,54.67
2023-04-15T15:37:16.695Z,54.44
2023-04-15T15:40:19.318Z,54.71
2023-04-15T15:43:21.675Z,54.51
2023-04-15T15:46:24.385Z,54.41
2023-04-15T15:49:46.280Z,54.76
2023-04-15T15:52:48.712Z,54.78
2023-04-15T15:55:53.179Z,54.54
2023-04-15T15:58:56.169Z,55.14
2023-04-15T16:01:59.047Z,54.73
2023-04-15T16:05:01.571Z,54.62
2023-04-15T16:08:04.108Z,54.67
2023-04-15T16:11:06.481Z,54.99
2023-04-15T16:14:08.887Z,54.93
2023-04-15T16:17:11.374Z,54.95
2023-04-15T16:20:13.695Z,55.05
2023-04-15T16:23:16.922Z,55.27
2023-04-15T16:26:19.420Z,55.18
2023-04-15T16:29:21.852Z,55.38
2023-04-15T16:32:24.455Z,55.01
2023-04-15T16:35:26.835Z,55.05
2023-04-15T16:38:29.173Z,55.27
2023-04-15T16:41:33.237Z,55.32
2023-04-15T16:44:36.902Z,55.75
2023-04-15T16:47:39.300Z,55.42
2023-04-15T16:50:41.682Z,55.30
2023-04-15T16:53:44.041Z,55.35
2023-04-15T16:56:46.400Z,55.67
2023-04-15T16:59:48.805Z,55.47
2023-04-15T17:02:51.278Z,55.57
2023-04-15T17:05:53.733Z,55.83
2023-04-15T17:08:56.214Z,55.83
2023-04-15T17:11:58.783Z,56.20
2023-04-15T17:15:01.265Z,55.89
2023-04-15T17:18:04.857Z,55.88
2023-04-15T17:21:07.429Z,56.04
2023-04-15T17:24:09.806Z,56.12
2023-04-15T17:27:12.157Z,56.04
2023-04-15T17:30:14.615Z,56.17
2023-04-15T17:33:55.918Z,56.24
2023-04-15T17:36:39.418Z,56.46
2023-04-15T17:39:41.741Z,56.57
2023-04-15T17:42:44.166Z,56.26
2023-04-15T17:45:47.567Z,56.39
2023-04-15T17:48:50.227Z,56.36
2023-04-15T17:51:54.901Z,56.46
2023-04-15T17:54:57.259Z,56.38
2023-04-15T17:58:00.452Z,56.64
2023-04-15T18:01:02.941Z,56.83
2023-04-15T18:04:06.390Z,56.53
2023-04-15T18:07:09.481Z,56.83
2023-04-15T18:10:12.185Z,56.57
2023-04-15T18:13:14.628Z,56.89
2023-04-15T18:16:17.116Z,56.72
2023-04-15T18:19:19.661Z,56.71
2023-04-15T18:22:22.268Z,56.88
2023-04-15T18:25:24.867Z,56.93
2023-04-15T18:28:27.366Z,57.07
2023-04-15T18:31:29.956Z,56.99
2023-04-15T18:34:32.596Z,57.17
2023-04-15T18:37:35.473Z,57.02
2023-04-15T18:40:37.972Z,57.20
2023-04-15T18:43:40.543Z,56.82
2023-04-15T18:46:43.090Z,57.06
2023-04-15T18:49:45.630Z,57.25
2023-04-15T18:52:48.195Z,57.19
2023-04-15T18:55:50.792Z,57.37
2023-04-15T18:59:10.175Z,57.09
2023-04-15T19:02:16.018Z,57.60
2023-04-15T19:05:18.697Z,57.48
2023-04-15T19:08:21.264Z,57.32
2023-04-15T19:11:23.986Z,57.19
2023-04-15T19:14:26.289Z,57.20
2023-04-15T19:17:28.994Z,57.17
2023-04-15T19:20:32.294Z,57.45
2023-04-15T19:23:36.816Z,57.75
2023-04-15T19:26:39.425Z,57.56
2023-04-15T19:29:41.990Z,57.65
2023-04-15T19:32:44.595Z,57.28
2023-04-15T19:35:49.982Z,57.83
2023-04-15T19:38:52.744Z,57.64
2023-04-15T19:41:56.012Z,57.62
2023-04-15T19:44:58.608Z,57.38
2023-04-15T19:48:01.116Z,57.39
2023-04-15T19:51:03.746Z,57.60
2023-04-15T19:54:06.577Z,57.71
2023-04-15T19:57:09.226Z,57.73
2023-04-15T20:00:12.327Z,57.98
2023-04-15T20:03:14.953Z,57.52
2023-04-15T20:06:17.627Z,57.81
2023-04-15T20:09:20.164Z,57.88
2023-04-15T20:12:49.665Z,57.92
2023-04-15T20:15:45.243Z,57.88
2023-04-15T20:18:47.808Z,57.74
2023-04-15T20:21:52.108Z,58.06
2023-04-15T20:24:55.115Z,57.61
2023-04-15T20:28:00.394Z,57.69
2023-04-15T20:31:03.617Z,57.94
2023-04-15T20:34:06.402Z,57.88
2023-04-15T20:37:08.864Z,57.63
2023-04-15T20:40:11.917Z,58.07
2023-04-15T20:43:14.602Z,58.14
2023-04-15T20:46:21.245Z,58.23
2023-04-15T20:49:24.177Z,57.88
2023-04-15T20:52:26.502Z,57.89
2023-04-15T20:55:30.699Z,57.83
2023-04-15T20:58:33.266Z,57.79
2023-04-15T21:01:35.793Z,57.94
2023-04-15T21:04:38.942Z,57.90
2023-04-15T21:07:41.399Z,57.89
2023-04-15T21:10:43.785Z,58.14
2023-04-15T21:13:46.537Z,57.89
2023-04-15T21:16:49.008Z,58.29
2023-04-15T21:19:51.373Z,57.93
2023-04-15T21:22:53.810Z,58.20
2023-04-15T21:25:56.693Z,58.04
2023-04-15T21:28:59.094Z,57.81
2023-04-15T21:32:01.545Z,57.98
2023-04-15T21:35:04.186Z,58.10
2023-04-15T21:38:06.527Z,58.15
2023-04-15T21:41:09.815Z,58.18
2023-04-15T21:44:13.980Z,58.34
2023-04-15T21:47:17.387Z,58.32
2023-04-15T21:50:19.958Z,58.17
2023-04-15T21:53:22.275Z,58.09
2023-04-15T21:56:25.862Z,58.31
2023-04-15T21:59:28.313Z,57.89
2023-04-15T22:02:30.966Z,58.39
2023-04-15T22:05:33.524Z,58.16
2023-04-15T22:08:48.124Z,58.11
2023-04-15T22:11:55.371Z,58.20
2023-04-15T22:14:57.790Z,58.21
2023-04-15T22:18:00.213Z,58.16
2023-04-15T22:21:02.651Z,58.16
2023-04-15T22:24:38.497Z,58.36
2023-04-15T22:27:28.054Z,58.06
2023-04-15T22:30:30.471Z,57.90
2023-04-15T22:33:32.856Z,58.40
2023-04-15T22:36:35.489Z,58.09
2023-04-15T22:39:37.838Z,58.27
2023-04-15T22:42:40.212Z,58.04
2023-04-15T22:45:42.538Z,58.07
2023-04-15T22:48:44.892Z,58.56
2023-04-15T22:51:47.258Z,58.49
2023-04-15T22:54:49.638Z,58.42
2023-04-15T22:57:52.814Z,58.39
2023-04-15T23:00:55.351Z,58.32
2023-04-15T23:04:04.382Z,57.99
2023-04-15T23:07:09.394Z,58.44
2023-04-15T23:10:11.749Z,58.21
2023-04-15T23:13:14.090Z,58.27
2023-04-15T23:16:16.571Z,58.36
2023-04-15T23:19:19.071Z,58.60
2023-04-15T23:22:21.535Z,58.16
2023-04-15T23:25:24.020Z,58.72
2023-04-15T23:28:26.325Z,58.33
2023-04-15T23:31:28.726Z,58.53
2023-04-15T23:34:31.134Z,58.46
2023-04-15T23:37:33.462Z,58.74
2023-04-15T23:40:35.839Z,58.71
2023-04-15T23:43:38.225Z,58.14
2023-04-15T23:46:40.755Z,58.33
2023-04-15T23:49:43.162Z,58.39
2023-04-15T23:52:45.556Z,58.57
2023-04-15T23:55:49.100Z,58.78
2023-04-15T23:58:51.418Z,58.71
